Back to top

Big Piney, WY weather

Big Piney-Marbleton Airport (AMOS), Big Piney, WY: 1/17/2020 22:53
Visibility10 statute milesclear sky
View 7-Day Forecast
Area Summary
Sky/CloudsSky Clear
Weather [last 24 hours]None [snow began 06:12; snow began 06:12 ended 06:43; snow began 08:37; snow ended 09:00 ]
Pressure30.22 in.Hg (1024 hPa)
3-hour Pressure Tendency0.04429 in.Hg (1.5 hPa) Decreasing or steady, then increasing; or increasing then increasing more rapidly
Dew Point-6 °F (-21.1 °C)
Relative Humidity78.5 %
Last 24-Hour Precip.Trace
Reading TimePrecipitation
6-hr ending 1/17@10:53Trace
Temperature-0.9 °F (-18.3 °C)blue thermometer
Wind Chill-12.6 °F (-24.8 °C)
Reading TimeMinimum to Maximum Temperature
6-hr ending 1/17@22:53-2.9 °F to 12.9 °F (-19.4 °C to -10.6 °C)
6-hr ending 1/17@16:5312 °F to 26.1 °F (-11.1 °C to -3.3 °C)
6-hr ending 1/17@10:531 °F to 21.9 °F (-17.2 °C to -5.6 °C)
6-hr ending 1/17@04:53-5.1 °F to 6.1 °F (-20.6 °C to -14.4 °C)
24-hr ending 1/16@23:53-11.9 °F to 9 °F (-24.4 °C to -12.8 °C)
Wind5.75 MPH (5 KT) green arrow pointing 180 degrees
Wind FromSouth (190 Degrees)
Rolling 24-hr Peak Wind34.5 MPH (30 KT) on 1/17@14:27
Rolling 24-hr Peak Wind FromNorthwest (320 Degrees)
Twilight Begins07:14Sunshine Yesterday
Sunrise07:45N/A
Sunset17:17
Twilight Ends17:48
METARKBPI 180553Z AUTO 19005KT 10SM CLR M18/M21 A3022 RMK AO2 SLP305 T11831211 11106 21194 53015
Tags: